This is the latest recevied weather packets stored in our database for station/object YD1OCG-15. If no packets are shown the sender has not sent any weather packets the latest 10 day(s).
| Time | Temp. | Humidity | Pressure | Rain* | Wind** | Luminosity | Snow |
|---|---|---|---|---|---|---|---|
| 1788328584 | 30.56° C | 65% | 1013 hPa | - | - | - | - |
| 1788324983 | 30.56° C | 63% | 1014 hPa | - | - | - | - |
| 1788294384 | 26.11° C | 82% | 1014 hPa | - | - | - | - |
| 1788287183 | 26.67° C | 83% | 1015 hPa | - | - | - | - |
| 1788283583 | 26.67° C | 81% | 1015 hPa | - | - | - | - |
| 1788279984 | 26.67° C | 80% | 1015 hPa | - | - | - | - |
| 1788276384 | 27.22° C | 74% | 1015 hPa | - | - | - | - |
| 1788270984 | 27.22° C | 78% | 1016 hPa | - | - | - | - |
| 1788269183 | 26.67° C | 78% | 1015 hPa | - | - | - | - |
| 1788265583 | 27.22° C | 70% | 1015 hPa | - | - | - | - |
| 1788263783 | 27.22° C | 70% | 1015 hPa | - | - | - | - |
| 1788261983 | 27.78° C | 70% | 1013 hPa | - | - | - | - |
| 1788260184 | 28.33° C | 66% | 1013 hPa | - | - | - | - |
| 1788258384 | 30° C | 68% | 1012 hPa | - | - | - | - |
| 1788256583 | 30.56° C | 67% | 1012 hPa | - | - | - | - |
| 1788254783 | 31.67° C | 65% | 1012 hPa | - | - | - | - |
| 1788252984 | 32.22° C | 64% | 1011 hPa | - | - | - | - |
| 1788251183 | 32.22° C | 63% | 1011 hPa | - | - | - | - |
| 1788249383 | 32.22° C | 61% | 1010 hPa | - | - | - | - |
| 1788247583 | 32.22° C | 61% | 1011 hPa | - | - | - | - |
| 1788245783 | 32.22° C | 60% | 1011 hPa | - | - | - | - |
| 1788243984 | 32.22° C | 55% | 1012 hPa | - | - | - | - |
| 1788242184 | 31.67° C | 56% | 1012 hPa | - | - | - | - |
| 1788240384 | 31.67° C | 57% | 1013 hPa | - | - | - | - |
| 1788238588 | 31.11° C | 59% | 1013 hPa | - | - | - | - |
* Rain since midnight (hover to see other rain measurements)
** Current wind speed in m/s (hover to see current wind gust speed)